Grete Maersk — OYCY2 — position and weather

sailwx.info

Track history (hours):
 
Tides and Currents Weather Stations Pressure Air Temp Water Temp Dewpoint Dewpoint Depression Visibility Wind Speed Wind Dir Waves Ship Positions

Grete Maersk

Last reported at 2017-Mar-17 06:21 UTC. Time now 2017-Mar-23 04:17 UTC.
Position N 38°23' W 127°36'.

MMSI: 218824136.

Date/timePositionNaut miles runAvg speedWind from/ knotsBaromVisibWave heightAir tempDewpointWater temp
2017-Mar-17 06:21N 38°23' W 127°36'7715.7
2017-Mar-17 01:26N 38°18' W 125°59'7314.8
2017-Mar-16 20:32N 38°13' W 124°26'1414.6
2017-Mar-16 19:33N 38°12' W 124°08'11 8.0
2017-Mar-16 18:09N 38°12' W 123°54'610.7
2017-Mar-16 17:33N 38°11' W 123°46'1212.4
2017-Mar-16 16:33N 38°11' W 123°30'1110.7
2017-Mar-16 15:33N 38°06' W 123°18'1211.7
2017-Mar-16 14:33N 37°58' W 123°07'1312.5
2017-Mar-16 13:33N 37°52' W 122°53'1111.4
2017-Mar-16 12:33N 37°45' W 122°41'1514.7
2017-Mar-16 11:33N 37°49' W 122°23'4 4.1
2017-Mar-16 10:34N 37°48' W 122°18'0 0.0
2017-Mar-16 09:33N 37°48' W 122°18'0 0.0
2017-Mar-16 08:33N 37°48' W 122°18'0 0.0
2017-Mar-16 07:33N 37°48' W 122°18'0 0.0
2017-Mar-16 06:33N 37°48' W 122°18'0 0.0
2017-Mar-16 05:33N 37°48' W 122°18'0 0.0
2017-Mar-16 04:33N 37°48' W 122°18'0 0.0
2017-Mar-16 03:33N 37°48' W 122°18'0 0.0
2017-Mar-16 02:33N 37°48' W 122°18'0 0.0
2017-Mar-16 01:33N 37°48' W 122°18'0 0.0
2017-Mar-16 00:33N 37°48' W 122°18'0 0.0
2017-Mar-15 23:33N 37°48' W 122°18'0 0.0
2017-Mar-15 22:33N 37°48' W 122°18'0 0.0
2017-Mar-15 21:33N 37°48' W 122°18'0 0.0
2017-Mar-15 20:33N 37°48' W 122°18'0 0.0
2017-Mar-15 19:33N 37°48' W 122°18'0 0.0
2017-Mar-15 18:33N 37°48' W 122°18'0 0.0
2017-Mar-15 17:33N 37°48' W 122°18'0 0.0
2017-Mar-15 16:33N 37°48' W 122°18'0 0.0
2017-Mar-15 15:33N 37°48' W 122°18'0 0.0
2017-Mar-15 14:33N 37°48' W 122°18'0 0.0
2017-Mar-15 13:33N 37°48' W 122°18'0 0.0
2017-Mar-15 12:33N 37°48' W 122°18'0 0.0
2017-Mar-15 11:33N 37°48' W 122°18'0 0.0
2017-Mar-15 10:33N 37°48' W 122°18'0 0.0
2017-Mar-15 09:33N 37°48' W 122°18'0 0.0
2017-Mar-15 08:33N 37°48' W 122°18'0 0.0
2017-Mar-15 07:33N 37°48' W 122°18'0 0.0
2017-Mar-15 06:33N 37°48' W 122°18'0 0.0
2017-Mar-15 05:33N 37°48' W 122°18'0 0.0
2017-Mar-15 04:33N 37°48' W 122°18'0 0.0
2017-Mar-15 03:33N 37°48' W 122°18'0 0.0
2017-Mar-15 02:33N 37°48' W 122°18'0 0.0
2017-Mar-15 01:33N 37°48' W 122°18'0 0.0
2017-Mar-15 00:33N 37°48' W 122°18'0 0.0
2017-Mar-14 23:33N 37°48' W 122°18'0 0.0
2017-Mar-14 22:33N 37°48' W 122°18'1 0.7
2017-Mar-14 21:33N 37°48' W 122°18'5 5.1
2017-Mar-14 20:33N 37°49' W 122°24'1413.5
2017-Mar-14 19:33N 37°45' W 122°40'1211.8
2017-Mar-14 18:33N 37°33' W 122°39'1413.9
2017-Mar-14 17:33N 37°19' W 122°39'1212.2
2017-Mar-14 16:33N 37°08' W 122°36'1313.0
2017-Mar-14 15:33N 36°55' W 122°30'1312.7
2017-Mar-14 14:33N 36°44' W 122°25'1312.6
2017-Mar-14 13:33N 36°32' W 122°19'1312.5
2017-Mar-14 12:33N 36°20' W 122°14'1312.6
2017-Mar-14 11:33N 36°09' W 122°06'1312.7
2017-Mar-14 10:33N 35°58' W 121°58'1313.1
2017-Mar-14 09:33N 35°47' W 121°50'1312.8
2017-Mar-14 08:33N 35°36' W 121°42'1312.8
2017-Mar-14 07:33N 35°25' W 121°34'1312.9
2017-Mar-14 06:33N 35°14' W 121°26'1312.7
2017-Mar-14 05:33N 35°03' W 121°18'1312.7
2017-Mar-14 04:33N 34°52' W 121°10'1312.5
2017-Mar-14 03:32N 34°41' W 121°02'1212.4
2017-Mar-14 02:33N 34°30' W 120°55'1311.2
2017-Mar-14 01:26N 34°24' W 120°41'1112.8
2017-Mar-14 00:33N 34°21' W 120°28'1412.7
2017-Mar-13 23:29N 34°17' W 120°12'1212.7
2017-Mar-13 22:33N 34°15' W 119°59'1312.8
2017-Mar-13 21:33N 34°11' W 119°44'1312.9
2017-Mar-13 20:33N 34°07' W 119°29'1312.7
2017-Mar-13 19:33N 34°04' W 119°14'1212.4
2017-Mar-13 18:33N 33°58' W 119°01'1111.1
2017-Mar-13 17:33N 33°52' W 118°49'1111.0
2017-Mar-13 16:33N 33°47' W 118°38'1111.2
2017-Mar-13 15:33N 33°41' W 118°26'9 8.7
2017-Mar-13 14:33N 33°41' W 118°16'3 2.9
2017-Mar-13 13:33N 33°44' W 118°16'1 0.7
2017-Mar-13 12:32N 33°44' W 118°15'0 0.0
2017-Mar-13 11:32N 33°44' W 118°15'0 0.0
2017-Mar-13 10:32N 33°44' W 118°15'0 0.0
2017-Mar-13 09:32N 33°44' W 118°15'0 0.0
2017-Mar-13 08:32N 33°44' W 118°15'0 0.0
2017-Mar-13 07:26N 33°44' W 118°15'0 0.0
2017-Mar-13 06:20N 33°44' W 118°15'0 0.0
2017-Mar-13 05:32N 33°44' W 118°15'0 0.0
2017-Mar-13 04:26N 33°44' W 118°15'0 0.0
2017-Mar-13 03:32N 33°44' W 118°15'0 0.0
2017-Mar-13 02:29N 33°44' W 118°15'0 0.0
2017-Mar-13 01:32N 33°44' W 118°15'0 0.0
2017-Mar-13 00:32N 33°44' W 118°15'0 0.0
2017-Mar-12 23:32N 33°44' W 118°15'0 0.0
2017-Mar-12 22:32N 33°44' W 118°15'0 0.0
2017-Mar-12 21:32N 33°44' W 118°15'0 0.0
2017-Mar-12 20:32N 33°44' W 118°15'0 0.0
2017-Mar-12 19:20N 33°44' W 118°15'0 0.0
2017-Mar-12 18:32N 33°44' W 118°15'0 0.0
2017-Mar-12 17:32N 33°44' W 118°15'0 0.0
2017-Mar-12 16:20N 33°44' W 118°15'0 0.0
2017-Mar-12 15:32N 33°44' W 118°15'0 0.0
2017-Mar-12 14:26N 33°44' W 118°15'0 0.0
2017-Mar-12 13:26N 33°44' W 118°15'0 0.0
2017-Mar-12 12:29N 33°44' W 118°15'0 0.0
2017-Mar-12 11:32N 33°44' W 118°15'0 0.0
2017-Mar-12 10:32N 33°44' W 118°15'0 0.0
2017-Mar-12 09:32N 33°44' W 118°15'0 0.0
2017-Mar-12 08:32N 33°44' W 118°15'0 0.0
2017-Mar-12 07:23N 33°44' W 118°15'0 0.0
2017-Mar-12 06:32N 33°44' W 118°15'0 0.0
2017-Mar-12 05:32N 33°44' W 118°15'0 0.0
2017-Mar-12 04:32N 33°44' W 118°15'0 0.0
2017-Mar-12 03:32N 33°44' W 118°15'0 0.0
2017-Mar-12 02:32N 33°44' W 118°15'0 0.0
2017-Mar-12 01:32N 33°44' W 118°15'0 0.0
2017-Mar-12 00:32N 33°44' W 118°15'0 0.0
2017-Mar-11 23:32N 33°44' W 118°15'0 0.0
2017-Mar-11 22:32N 33°44' W 118°15'0 0.0
2017-Mar-11 21:32N 33°44' W 118°15'0 0.0
2017-Mar-11 20:32N 33°44' W 118°15'0 0.0
2017-Mar-11 19:32N 33°44' W 118°15'0 0.0
2017-Mar-11 18:32N 33°44' W 118°15'0 0.0
2017-Mar-11 17:32N 33°44' W 118°15'0 0.0
2017-Mar-11 16:32N 33°44' W 118°15'0 0.0
2017-Mar-11 15:32N 33°44' W 118°15'0 0.0
2017-Mar-11 14:32N 33°44' W 118°15'0 0.0
2017-Mar-11 13:32N 33°44' W 118°15'0 0.0
2017-Mar-11 12:32N 33°44' W 118°15'0 0.0
2017-Mar-11 11:32N 33°44' W 118°15'0 0.0
2017-Mar-11 10:32N 33°44' W 118°15'0 0.0
2017-Mar-11 09:32N 33°44' W 118°15'0 0.0
2017-Mar-11 08:26N 33°44' W 118°15'0 0.0
2017-Mar-11 07:32N 33°44' W 118°15'0 0.0
2017-Mar-11 06:32N 33°44' W 118°15'0 0.0
2017-Mar-11 05:23N 33°44' W 118°15'0 0.0
2017-Mar-11 04:29N 33°44' W 118°15'0 0.0
2017-Mar-11 02:20N 33°44' W 118°15'0 0.0
2017-Mar-11 01:32N 33°44' W 118°15'0 0.0
2017-Mar-10 22:08N 33°44' W 118°15'0 0.0
2017-Mar-10 21:26N 33°44' W 118°15'0 0.0
2017-Mar-10 20:26N 33°44' W 118°15'0 0.0
2017-Mar-10 19:32N 33°44' W 118°15'0 0.0
2017-Mar-10 18:32N 33°44' W 118°15'0 0.0
2017-Mar-10 17:32N 33°44' W 118°15'0 0.0
2017-Mar-10 16:32N 33°44' W 118°15'0 0.0
2017-Mar-10 15:32N 33°44' W 118°15'0 0.0
2017-Mar-10 14:26N 33°44' W 118°15'0 0.0
2017-Mar-10 13:32N 33°44' W 118°15'0 0.0
2017-Mar-10 12:20N 33°44' W 118°15'0 0.0
2017-Mar-10 11:32N 33°44' W 118°15'0 0.0
2017-Mar-10 10:32N 33°44' W 118°15'0 0.0
2017-Mar-10 09:29N 33°44' W 118°15'0 0.0
2017-Mar-10 08:32N 33°44' W 118°15'0 0.0
2017-Mar-10 07:32N 33°44' W 118°15'0 0.0
2017-Mar-10 06:32N 33°44' W 118°15'0 0.0
2017-Mar-10 05:32N 33°44' W 118°15'0 0.0
2017-Mar-10 04:32N 33°44' W 118°15'0 0.0
2017-Mar-10 02:26N 33°44' W 118°15'0 0.0
2017-Mar-10 00:32N 33°44' W 118°15'0 0.0
2017-Mar-09 23:29N 33°44' W 118°15'0 0.0
2017-Mar-09 22:32N 33°44' W 118°15'0 0.0
2017-Mar-09 21:32N 33°44' W 118°15'0 0.0
2017-Mar-09 20:20N 33°44' W 118°15'0 0.0
2017-Mar-09 19:32N 33°44' W 118°15'0 0.0
2017-Mar-09 18:32N 33°44' W 118°15'0 0.0
2017-Mar-09 17:29N 33°44' W 118°15'0 0.0
2017-Mar-09 16:32N 33°44' W 118°15'0 0.0
2017-Mar-09 15:32N 33°44' W 118°15'0 0.0
2017-Mar-09 14:32N 33°44' W 118°15'0 0.0
2017-Mar-09 13:32N 33°44' W 118°15'3 3.0
2017-Mar-09 12:33N 33°41' W 118°14'8 7.5
2017-Mar-09 11:33N 33°37' W 118°21'1111.1
2017-Mar-09 10:33N 33°42' W 118°33'1111.1
2017-Mar-09 09:33N 33°47' W 118°45'1111.0
2017-Mar-09 08:33N 33°53' W 118°56'1111.4
2017-Mar-09 07:33N 33°59' W 119°08'1515.1
2017-Mar-09 06:34N 34°04' W 119°25'2115.6
2017-Mar-09 05:14N 34°10' W 119°49'5615.4
2017-Mar-09 01:34N 34°25' W 120°55'1413.8
2017-Mar-09 00:32N 34°28' W 121°12'1515.2
2017-Mar-08 23:33N 34°31' W 121°29'1818.0
2017-Mar-08 22:33N 34°34' W 121°51'1818.3
2017-Mar-08 21:33N 34°38' W 122°12'1818.1
2017-Mar-08 20:33N 34°41' W 122°34'1818.2
2017-Mar-08 19:33N 34°45' W 122°56'1818.2
2017-Mar-08 18:33N 34°48' W 123°17'2017.9
2017-Mar-08 17:27N 34°52' W 123°41'1718.1
2017-Mar-08 16:30N 34°55' W 124°02'1818.1
2017-Mar-08 15:29N 34°59' W 124°24'  
Track history (hours):
 
Tides and Currents Weather Stations Pressure Air Temp Water Temp Dewpoint Dewpoint Depression Visibility Wind Speed Wind Dir Waves Ship Positions

Grete Maersk

Last reported at 2017-Mar-17 06:21 UTC. Time now 2017-Mar-23 04:17 UTC.
Position N 38°23' W 127°36'.

MMSI: 218824136.

Date/timePositionNaut miles runAvg speedWind from/ knotsBaromVisibWave heightAir tempDewpointWater temp
2017-Mar-17 06:21N 38°23' W 127°36'7715.7
2017-Mar-17 01:26N 38°18' W 125°59'7314.8
2017-Mar-16 20:32N 38°13' W 124°26'1414.6
2017-Mar-16 19:33N 38°12' W 124°08'11 8.0
2017-Mar-16 18:09N 38°12' W 123°54'610.7
2017-Mar-16 17:33N 38°11' W 123°46'1212.4
2017-Mar-16 16:33N 38°11' W 123°30'1110.7
2017-Mar-16 15:33N 38°06' W 123°18'1211.7
2017-Mar-16 14:33N 37°58' W 123°07'1312.5
2017-Mar-16 13:33N 37°52' W 122°53'1111.4
2017-Mar-16 12:33N 37°45' W 122°41'1514.7
2017-Mar-16 11:33N 37°49' W 122°23'4 4.1
2017-Mar-16 10:34N 37°48' W 122°18'0 0.0
2017-Mar-16 09:33N 37°48' W 122°18'0 0.0
2017-Mar-16 08:33N 37°48' W 122°18'0 0.0
2017-Mar-16 07:33N 37°48' W 122°18'0 0.0
2017-Mar-16 06:33N 37°48' W 122°18'0 0.0
2017-Mar-16 05:33N 37°48' W 122°18'0 0.0
2017-Mar-16 04:33N 37°48' W 122°18'0 0.0
2017-Mar-16 03:33N 37°48' W 122°18'0 0.0
2017-Mar-16 02:33N 37°48' W 122°18'0 0.0
2017-Mar-16 01:33N 37°48' W 122°18'0 0.0
2017-Mar-16 00:33N 37°48' W 122°18'0 0.0
2017-Mar-15 23:33N 37°48' W 122°18'0 0.0
2017-Mar-15 22:33N 37°48' W 122°18'0 0.0
2017-Mar-15 21:33N 37°48' W 122°18'0 0.0
2017-Mar-15 20:33N 37°48' W 122°18'0 0.0
2017-Mar-15 19:33N 37°48' W 122°18'0 0.0
2017-Mar-15 18:33N 37°48' W 122°18'0 0.0
2017-Mar-15 17:33N 37°48' W 122°18'0 0.0
2017-Mar-15 16:33N 37°48' W 122°18'0 0.0
2017-Mar-15 15:33N 37°48' W 122°18'0 0.0
2017-Mar-15 14:33N 37°48' W 122°18'0 0.0
2017-Mar-15 13:33N 37°48' W 122°18'0 0.0
2017-Mar-15 12:33N 37°48' W 122°18'0 0.0
2017-Mar-15 11:33N 37°48' W 122°18'0 0.0
2017-Mar-15 10:33N 37°48' W 122°18'0 0.0
2017-Mar-15 09:33N 37°48' W 122°18'0 0.0
2017-Mar-15 08:33N 37°48' W 122°18'0 0.0
2017-Mar-15 07:33N 37°48' W 122°18'0 0.0
2017-Mar-15 06:33N 37°48' W 122°18'0 0.0
2017-Mar-15 05:33N 37°48' W 122°18'0 0.0
2017-Mar-15 04:33N 37°48' W 122°18'0 0.0
2017-Mar-15 03:33N 37°48' W 122°18'0 0.0
2017-Mar-15 02:33N 37°48' W 122°18'0 0.0
2017-Mar-15 01:33N 37°48' W 122°18'0 0.0
2017-Mar-15 00:33N 37°48' W 122°18'0 0.0
2017-Mar-14 23:33N 37°48' W 122°18'0 0.0
2017-Mar-14 22:33N 37°48' W 122°18'1 0.7
2017-Mar-14 21:33N 37°48' W 122°18'5 5.1
2017-Mar-14 20:33N 37°49' W 122°24'1413.5
2017-Mar-14 19:33N 37°45' W 122°40'1211.8
2017-Mar-14 18:33N 37°33' W 122°39'1413.9
2017-Mar-14 17:33N 37°19' W 122°39'1212.2
2017-Mar-14 16:33N 37°08' W 122°36'1313.0
2017-Mar-14 15:33N 36°55' W 122°30'1312.7
2017-Mar-14 14:33N 36°44' W 122°25'1312.6
2017-Mar-14 13:33N 36°32' W 122°19'1312.5
2017-Mar-14 12:33N 36°20' W 122°14'1312.6
2017-Mar-14 11:33N 36°09' W 122°06'1312.7
2017-Mar-14 10:33N 35°58' W 121°58'1313.1
2017-Mar-14 09:33N 35°47' W 121°50'1312.8
2017-Mar-14 08:33N 35°36' W 121°42'1312.8
2017-Mar-14 07:33N 35°25' W 121°34'1312.9
2017-Mar-14 06:33N 35°14' W 121°26'1312.7
2017-Mar-14 05:33N 35°03' W 121°18'1312.7
2017-Mar-14 04:33N 34°52' W 121°10'1312.5
2017-Mar-14 03:32N 34°41' W 121°02'1212.4
2017-Mar-14 02:33N 34°30' W 120°55'1311.2
2017-Mar-14 01:26N 34°24' W 120°41'1112.8
2017-Mar-14 00:33N 34°21' W 120°28'1412.7
2017-Mar-13 23:29N 34°17' W 120°12'1212.7
2017-Mar-13 22:33N 34°15' W 119°59'1312.8
2017-Mar-13 21:33N 34°11' W 119°44'1312.9
2017-Mar-13 20:33N 34°07' W 119°29'1312.7
2017-Mar-13 19:33N 34°04' W 119°14'1212.4
2017-Mar-13 18:33N 33°58' W 119°01'1111.1
2017-Mar-13 17:33N 33°52' W 118°49'1111.0
2017-Mar-13 16:33N 33°47' W 118°38'1111.2
2017-Mar-13 15:33N 33°41' W 118°26'9 8.7
2017-Mar-13 14:33N 33°41' W 118°16'3 2.9
2017-Mar-13 13:33N 33°44' W 118°16'1 0.7
2017-Mar-13 12:32N 33°44' W 118°15'0 0.0
2017-Mar-13 11:32N 33°44' W 118°15'0 0.0
2017-Mar-13 10:32N 33°44' W 118°15'0 0.0
2017-Mar-13 09:32N 33°44' W 118°15'0 0.0
2017-Mar-13 08:32N 33°44' W 118°15'0 0.0
2017-Mar-13 07:26N 33°44' W 118°15'0 0.0
2017-Mar-13 06:20N 33°44' W 118°15'0 0.0
2017-Mar-13 05:32N 33°44' W 118°15'0 0.0
2017-Mar-13 04:26N 33°44' W 118°15'0 0.0
2017-Mar-13 03:32N 33°44' W 118°15'0 0.0
2017-Mar-13 02:29N 33°44' W 118°15'0 0.0
2017-Mar-13 01:32N 33°44' W 118°15'0 0.0
2017-Mar-13 00:32N 33°44' W 118°15'0 0.0
2017-Mar-12 23:32N 33°44' W 118°15'0 0.0
2017-Mar-12 22:32N 33°44' W 118°15'0 0.0
2017-Mar-12 21:32N 33°44' W 118°15'0 0.0
2017-Mar-12 20:32N 33°44' W 118°15'0 0.0
2017-Mar-12 19:20N 33°44' W 118°15'0 0.0
2017-Mar-12 18:32N 33°44' W 118°15'0 0.0
2017-Mar-12 17:32N 33°44' W 118°15'0 0.0
2017-Mar-12 16:20N 33°44' W 118°15'0 0.0
2017-Mar-12 15:32N 33°44' W 118°15'0 0.0
2017-Mar-12 14:26N 33°44' W 118°15'0 0.0
2017-Mar-12 13:26N 33°44' W 118°15'0 0.0
2017-Mar-12 12:29N 33°44' W 118°15'0 0.0
2017-Mar-12 11:32N 33°44' W 118°15'0 0.0
2017-Mar-12 10:32N 33°44' W 118°15'0 0.0
2017-Mar-12 09:32N 33°44' W 118°15'0 0.0
2017-Mar-12 08:32N 33°44' W 118°15'0 0.0
2017-Mar-12 07:23N 33°44' W 118°15'0 0.0
2017-Mar-12 06:32N 33°44' W 118°15'0 0.0
2017-Mar-12 05:32N 33°44' W 118°15'0 0.0
2017-Mar-12 04:32N 33°44' W 118°15'0 0.0
2017-Mar-12 03:32N 33°44' W 118°15'0 0.0
2017-Mar-12 02:32N 33°44' W 118°15'0 0.0
2017-Mar-12 01:32N 33°44' W 118°15'0 0.0
2017-Mar-12 00:32N 33°44' W 118°15'0 0.0
2017-Mar-11 23:32N 33°44' W 118°15'0 0.0
2017-Mar-11 22:32N 33°44' W 118°15'0 0.0
2017-Mar-11 21:32N 33°44' W 118°15'0 0.0
2017-Mar-11 20:32N 33°44' W 118°15'0 0.0
2017-Mar-11 19:32N 33°44' W 118°15'0 0.0
2017-Mar-11 18:32N 33°44' W 118°15'0 0.0
2017-Mar-11 17:32N 33°44' W 118°15'0 0.0
2017-Mar-11 16:32N 33°44' W 118°15'0 0.0
2017-Mar-11 15:32N 33°44' W 118°15'0 0.0
2017-Mar-11 14:32N 33°44' W 118°15'0 0.0
2017-Mar-11 13:32N 33°44' W 118°15'0 0.0
2017-Mar-11 12:32N 33°44' W 118°15'0 0.0
2017-Mar-11 11:32N 33°44' W 118°15'0 0.0
2017-Mar-11 10:32N 33°44' W 118°15'0 0.0
2017-Mar-11 09:32N 33°44' W 118°15'0 0.0
2017-Mar-11 08:26N 33°44' W 118°15'0 0.0
2017-Mar-11 07:32N 33°44' W 118°15'0 0.0
2017-Mar-11 06:32N 33°44' W 118°15'0 0.0
2017-Mar-11 05:23N 33°44' W 118°15'0 0.0
2017-Mar-11 04:29N 33°44' W 118°15'0 0.0
2017-Mar-11 02:20N 33°44' W 118°15'0 0.0
2017-Mar-11 01:32N 33°44' W 118°15'0 0.0
2017-Mar-10 22:08N 33°44' W 118°15'0 0.0
2017-Mar-10 21:26N 33°44' W 118°15'0 0.0
2017-Mar-10 20:26N 33°44' W 118°15'0 0.0
2017-Mar-10 19:32N 33°44' W 118°15'0 0.0
2017-Mar-10 18:32N 33°44' W 118°15'0 0.0
2017-Mar-10 17:32N 33°44' W 118°15'0 0.0
2017-Mar-10 16:32N 33°44' W 118°15'0 0.0
2017-Mar-10 15:32N 33°44' W 118°15'0 0.0
2017-Mar-10 14:26N 33°44' W 118°15'0 0.0
2017-Mar-10 13:32N 33°44' W 118°15'0 0.0
2017-Mar-10 12:20N 33°44' W 118°15'0 0.0
2017-Mar-10 11:32N 33°44' W 118°15'0 0.0
2017-Mar-10 10:32N 33°44' W 118°15'0 0.0
2017-Mar-10 09:29N 33°44' W 118°15'0 0.0
2017-Mar-10 08:32N 33°44' W 118°15'0 0.0
2017-Mar-10 07:32N 33°44' W 118°15'0 0.0
2017-Mar-10 06:32N 33°44' W 118°15'0 0.0
2017-Mar-10 05:32N 33°44' W 118°15'0 0.0
2017-Mar-10 04:32N 33°44' W 118°15'0 0.0
2017-Mar-10 02:26N 33°44' W 118°15'0 0.0
2017-Mar-10 00:32N 33°44' W 118°15'0 0.0
2017-Mar-09 23:29N 33°44' W 118°15'0 0.0
2017-Mar-09 22:32N 33°44' W 118°15'0 0.0
2017-Mar-09 21:32N 33°44' W 118°15'0 0.0
2017-Mar-09 20:20N 33°44' W 118°15'0 0.0
2017-Mar-09 19:32N 33°44' W 118°15'0 0.0
2017-Mar-09 18:32N 33°44' W 118°15'0 0.0
2017-Mar-09 17:29N 33°44' W 118°15'0 0.0
2017-Mar-09 16:32N 33°44' W 118°15'0 0.0
2017-Mar-09 15:32N 33°44' W 118°15'0 0.0
2017-Mar-09 14:32N 33°44' W 118°15'0 0.0
2017-Mar-09 13:32N 33°44' W 118°15'3 3.0
2017-Mar-09 12:33N 33°41' W 118°14'8 7.5
2017-Mar-09 11:33N 33°37' W 118°21'1111.1
2017-Mar-09 10:33N 33°42' W 118°33'1111.1
2017-Mar-09 09:33N 33°47' W 118°45'1111.0
2017-Mar-09 08:33N 33°53' W 118°56'1111.4
2017-Mar-09 07:33N 33°59' W 119°08'1515.1
2017-Mar-09 06:34N 34°04' W 119°25'2115.6
2017-Mar-09 05:14N 34°10' W 119°49'5615.4
2017-Mar-09 01:34N 34°25' W 120°55'1413.8
2017-Mar-09 00:32N 34°28' W 121°12'1515.2
2017-Mar-08 23:33N 34°31' W 121°29'1818.0
2017-Mar-08 22:33N 34°34' W 121°51'1818.3
2017-Mar-08 21:33N 34°38' W 122°12'1818.1
2017-Mar-08 20:33N 34°41' W 122°34'1818.2
2017-Mar-08 19:33N 34°45' W 122°56'1818.2
2017-Mar-08 18:33N 34°48' W 123°17'2017.9
2017-Mar-08 17:27N 34°52' W 123°41'1718.1
2017-Mar-08 16:30N 34°55' W 124°02'1818.1
2017-Mar-08 15:29N 34°59' W 124°24'  

Dump ship's entire track history